createdAt,value
2023-02-16T00:00:48.712Z,77.10
2023-02-16T00:03:19.934Z,74.77
2023-02-16T00:05:48.461Z,80.43
2023-02-16T00:08:16.424Z,76.97
2023-02-16T00:11:06.357Z,76.67
2023-02-16T00:13:47.680Z,78.72
2023-02-16T00:16:19.620Z,81.53
2023-02-16T00:18:48.258Z,73.83
2023-02-16T00:21:17.231Z,74.77
2023-02-16T00:23:45.175Z,78.93
2023-02-16T00:26:17.156Z,77.13
2023-02-16T00:28:45.950Z,75.57
2023-02-16T00:31:20.442Z,74.43
2023-02-16T00:33:49.295Z,79.82
2023-02-16T00:36:17.521Z,80.73
2023-02-16T00:38:45.789Z,78.40
2023-02-16T00:41:33.695Z,77.97
2023-02-16T00:44:01.859Z,76.30
2023-02-16T00:46:31.802Z,78.70
2023-02-16T00:48:59.903Z,76.43
2023-02-16T00:51:28.530Z,80.50
2023-02-16T00:53:56.599Z,76.43
2023-02-16T00:56:26.441Z,81.87
2023-02-16T00:58:55.128Z,78.97
2023-02-16T01:01:30.627Z,79.97
2023-02-16T01:04:02.366Z,80.50
2023-02-16T01:06:48.239Z,73.83
2023-02-16T01:09:35.649Z,78.20
2023-02-16T01:12:05.703Z,77.43
2023-02-16T01:14:34.875Z,75.67
2023-02-16T01:17:02.773Z,79.97
2023-02-16T01:19:32.186Z,76.40
2023-02-16T01:22:00.043Z,78.13
2023-02-16T01:24:28.243Z,75.33
2023-02-16T01:26:56.341Z,78.47
2023-02-16T01:29:24.360Z,73.07
2023-02-16T01:31:52.844Z,80.50
2023-02-16T01:34:20.994Z,79.73
2023-02-16T01:36:50.666Z,75.13
2023-02-16T01:39:20.587Z,74.40
2023-02-16T01:42:08.367Z,77.57
2023-02-16T01:44:42.725Z,75.43
2023-02-16T01:47:19.920Z,78.23
2023-02-16T01:49:47.957Z,74.13
2023-02-16T01:52:27.705Z,77.50
2023-02-16T01:55:01.982Z,78.10
2023-02-16T01:57:38.886Z,75.70
2023-02-16T02:00:12.354Z,75.63
2023-02-16T02:02:43.798Z,76.23
2023-02-16T02:05:36.690Z,70.13
2023-02-16T02:08:17.070Z,75.23
2023-02-16T02:10:53.631Z,70.07
2023-02-16T02:13:25.310Z,74.67
2023-02-16T02:15:53.339Z,75.90
2023-02-16T02:18:21.343Z,78.90
2023-02-16T02:21:41.473Z,74.80
2023-02-16T02:24:44.418Z,73.10
2023-02-16T02:27:22.021Z,75.80
2023-02-16T02:30:09.629Z,73.30
2023-02-16T02:32:51.410Z,69.47
2023-02-16T02:35:34.166Z,67.93
2023-02-16T02:38:10.582Z,70.67
2023-02-16T02:40:49.158Z,68.70
2023-02-16T02:43:24.369Z,70.07
2023-02-16T02:45:57.195Z,73.13
2023-02-16T02:48:25.376Z,73.50
2023-02-16T02:51:16.016Z,69.70
2023-02-16T02:53:49.251Z,66.63
2023-02-16T02:56:36.932Z,66.87
2023-02-16T02:59:28.066Z,69.37
2023-02-16T03:02:00.142Z,67.40
2023-02-16T03:04:31.904Z,67.63
2023-02-16T03:07:02.684Z,68.90
2023-02-16T03:09:30.858Z,68.77
2023-02-16T03:12:18.543Z,68.63
2023-02-16T03:14:51.729Z,73.40
2023-02-16T03:17:41.839Z,69.30
2023-02-16T03:20:33.248Z,66.80
2023-02-16T03:23:21.474Z,72.40
2023-02-16T03:26:09.116Z,67.17
2023-02-16T03:28:59.505Z,69.30
2023-02-16T03:31:32.693Z,71.28
2023-02-16T03:34:01.051Z,72.77
2023-02-16T03:36:31.848Z,64.93
2023-02-16T03:39:00.564Z,66.57
2023-02-16T03:41:34.260Z,66.80
2023-02-16T03:44:02.331Z,66.57
2023-02-16T03:46:32.842Z,65.90
2023-02-16T03:49:00.810Z,64.80
2023-02-16T03:51:28.790Z,65.40
2023-02-16T03:53:56.677Z,66.63
2023-02-16T03:56:24.850Z,66.17
2023-02-16T03:58:52.813Z,66.43
2023-02-16T04:01:20.929Z,65.90
2023-02-16T04:03:50.385Z,63.30
2023-02-16T04:06:18.465Z,64.00
2023-02-16T04:08:46.541Z,65.50
2023-02-16T04:11:31.919Z,65.37
2023-02-16T04:13:59.787Z,65.60
2023-02-16T04:16:28.123Z,65.50
2023-02-16T04:18:57.534Z,64.80
2023-02-16T04:21:25.485Z,66.60
2023-02-16T04:23:53.486Z,67.30
2023-02-16T04:26:21.556Z,69.47
2023-02-16T04:28:49.711Z,61.08
2023-02-16T04:31:17.684Z,66.50
2023-02-16T04:33:45.772Z,62.40
2023-02-16T04:36:15.097Z,64.57
2023-02-16T04:38:42.986Z,65.13
2023-02-16T04:41:11.045Z,62.40
2023-02-16T04:43:39.212Z,64.23
2023-02-16T04:46:07.512Z,65.77
2023-02-16T04:48:35.466Z,63.73
2023-02-16T04:51:05.475Z,65.05
2023-02-16T04:53:35.053Z,66.30
2023-02-16T04:56:02.962Z,65.05
2023-02-16T04:58:30.990Z,64.07
2023-02-16T05:00:59.062Z,65.22
2023-02-16T05:03:27.120Z,63.58
2023-02-16T05:05:55.528Z,62.80
2023-02-16T05:08:23.557Z,68.00
2023-02-16T05:11:06.778Z,63.85
2023-02-16T05:13:52.268Z,62.93
2023-02-16T05:16:22.157Z,63.13
2023-02-16T05:18:50.135Z,63.80
2023-02-16T05:21:33.323Z,65.63
2023-02-16T05:24:03.795Z,65.72
2023-02-16T05:26:34.219Z,63.90
2023-02-16T05:29:02.952Z,66.73
2023-02-16T05:31:32.051Z,63.53
2023-02-16T05:34:00.112Z,66.18
2023-02-16T05:36:28.419Z,67.50
2023-02-16T05:38:56.859Z,66.80
2023-02-16T05:41:24.967Z,62.35
2023-02-16T05:43:55.903Z,70.10
2023-02-16T05:46:26.125Z,72.87
2023-02-16T05:48:54.750Z,70.00
2023-02-16T05:51:24.576Z,69.05
2023-02-16T05:53:52.707Z,70.22
2023-02-16T05:56:21.671Z,71.15
2023-02-16T05:58:50.155Z,69.25
2023-02-16T06:01:19.541Z,73.97
2023-02-16T06:03:47.835Z,72.18
2023-02-16T06:06:16.209Z,71.85
2023-02-16T06:08:44.205Z,70.57
2023-02-16T06:14:09.248Z,75.82
2023-02-16T06:16:38.807Z,74.43
2023-02-16T06:19:07.351Z,71.60
2023-02-16T06:21:36.659Z,69.13
2023-02-16T06:24:05.653Z,68.77
2023-02-16T06:26:36.939Z,71.78
2023-02-16T06:29:05.203Z,72.88
2023-02-16T06:31:38.120Z,70.68
2023-02-16T06:34:06.704Z,63.27
2023-02-16T06:36:35.535Z,79.30
2023-02-16T06:39:03.998Z,70.63
2023-02-16T06:41:37.920Z,81.13
2023-02-16T06:44:08.342Z,73.43
2023-02-16T06:46:37.743Z,75.18
2023-02-16T06:49:06.164Z,77.43
2023-02-16T06:51:34.660Z,75.65
2023-02-16T06:54:02.808Z,74.07
2023-02-16T06:56:30.863Z,75.88
2023-02-16T06:58:58.869Z,74.20
2023-02-16T07:01:26.883Z,77.27
2023-02-16T07:03:57.584Z,80.50
2023-02-16T07:06:27.606Z,72.40
2023-02-16T07:08:55.604Z,72.10
2023-02-16T07:11:23.857Z,69.85
2023-02-16T07:13:52.232Z,74.47
2023-02-16T07:16:20.418Z,74.15
2023-02-16T07:18:49.129Z,73.60
2023-02-16T07:21:18.518Z,67.97
2023-02-16T07:23:46.478Z,68.87
2023-02-16T07:26:14.725Z,67.43
2023-02-16T07:28:42.752Z,74.88
2023-02-16T07:31:12.454Z,67.57
2023-02-16T07:33:40.882Z,69.40
2023-02-16T07:36:09.880Z,70.38
2023-02-16T07:38:41.864Z,72.65
2023-02-16T07:41:10.950Z,73.07
2023-02-16T07:43:39.612Z,68.22
2023-02-16T07:46:07.679Z,71.10
2023-02-16T07:48:35.963Z,67.70
2023-02-16T07:51:04.725Z,70.03
2023-02-16T07:53:33.266Z,72.60
2023-02-16T07:56:02.722Z,67.90
2023-02-16T07:58:31.938Z,74.43
2023-02-16T08:01:08.569Z,71.15
2023-02-16T08:03:36.540Z,73.70
2023-02-16T08:06:05.496Z,72.10
2023-02-16T08:08:34.059Z,70.00
2023-02-16T08:11:09.878Z,73.22
2023-02-16T08:13:38.099Z,73.30
2023-02-16T08:16:09.526Z,74.15
2023-02-16T08:18:37.796Z,75.68
2023-02-16T08:21:14.111Z,78.30
2023-02-16T08:23:43.351Z,70.18
2023-02-16T08:26:13.667Z,73.47
2023-02-16T08:28:46.090Z,74.45
2023-02-16T08:31:14.727Z,76.55
2023-02-16T08:33:42.636Z,74.97
2023-02-16T08:36:18.262Z,81.07
2023-02-16T08:38:46.503Z,80.60
2023-02-16T08:41:16.301Z,82.90
2023-02-16T08:43:44.821Z,81.95
2023-02-16T08:46:13.102Z,77.70
2023-02-16T08:48:45.299Z,80.65
2023-02-16T08:51:15.575Z,81.28
2023-02-16T08:53:44.089Z,80.35
2023-02-16T08:56:12.482Z,80.82
2023-02-16T08:58:44.461Z,76.30
2023-02-16T09:01:13.474Z,78.20
2023-02-16T09:03:43.416Z,74.35
2023-02-16T09:06:13.397Z,64.30
2023-02-16T09:08:42.258Z,69.57
2023-02-16T09:11:14.770Z,68.40
2023-02-16T09:13:45.025Z,71.20
2023-02-16T09:16:15.743Z,75.63
2023-02-16T09:18:45.012Z,72.50
2023-02-16T09:21:15.924Z,71.35
2023-02-16T09:23:48.090Z,71.85
2023-02-16T09:26:18.642Z,73.88
2023-02-16T09:28:49.654Z,70.38
2023-02-16T09:31:25.520Z,72.05
2023-02-16T09:33:56.156Z,69.70
2023-02-16T09:36:25.107Z,68.53
2023-02-16T09:38:54.278Z,74.00
2023-02-16T09:41:43.837Z,77.90
2023-02-16T09:44:29.058Z,69.38
2023-02-16T09:47:12.394Z,70.95
2023-02-16T09:49:44.041Z,77.43
2023-02-16T09:52:20.086Z,71.75
2023-02-16T09:54:51.639Z,74.78
2023-02-16T09:57:28.562Z,75.35
2023-02-16T10:00:08.683Z,75.40
2023-02-16T10:02:46.696Z,72.40
2023-02-16T10:05:21.315Z,72.22
2023-02-16T10:08:02.044Z,71.90
2023-02-16T10:10:41.835Z,76.03
2023-02-16T10:13:16.889Z,71.43
2023-02-16T10:15:48.436Z,69.65
2023-02-16T10:18:24.187Z,69.28
2023-02-16T10:20:56.647Z,71.30
2023-02-16T10:23:38.113Z,69.80
2023-02-16T10:26:17.178Z,76.30
2023-02-16T10:28:48.698Z,69.68
2023-02-16T10:31:25.151Z,67.97
2023-02-16T10:34:08.974Z,64.60
2023-02-16T10:36:49.972Z,61.20
2023-02-16T10:39:24.641Z,62.50
2023-02-16T10:42:04.254Z,62.28
2023-02-16T10:44:40.320Z,61.85
2023-02-16T10:47:21.183Z,65.35
2023-02-16T10:49:52.169Z,66.30
2023-02-16T10:52:21.106Z,64.72
2023-02-16T10:54:49.514Z,65.30
2023-02-16T10:57:31.264Z,74.05
2023-02-16T11:00:06.655Z,66.43
2023-02-16T11:02:40.076Z,69.63
2023-02-16T11:05:36.242Z,64.13
2023-02-16T11:08:05.328Z,63.40
2023-02-16T11:10:39.092Z,63.88
2023-02-16T11:13:09.141Z,62.63
2023-02-16T11:15:40.505Z,66.90
2023-02-16T11:18:36.626Z,61.47
2023-02-16T11:21:06.662Z,66.28
2023-02-16T11:23:36.443Z,67.95
2023-02-16T11:26:06.886Z,63.22
2023-02-16T11:28:37.209Z,59.30
2023-02-16T11:31:20.910Z,63.33
2023-02-16T11:34:03.777Z,60.85
2023-02-16T11:36:37.479Z,62.53
2023-02-16T11:39:11.242Z,62.97
2023-02-16T11:41:44.235Z,65.07
2023-02-16T11:44:25.828Z,56.47
2023-02-16T11:46:55.405Z,58.25
2023-02-16T11:49:35.179Z,61.00
2023-02-16T11:52:21.166Z,58.67
2023-02-16T11:54:56.079Z,60.33
2023-02-16T11:57:31.558Z,57.05
2023-02-16T12:00:11.372Z,58.10
2023-02-16T12:02:56.766Z,60.03
2023-02-16T12:13:34.785Z,59.60
2023-02-16T12:16:14.630Z,57.03
2023-02-16T12:19:03.436Z,58.92
2023-02-16T12:21:39.784Z,58.08
2023-02-16T12:24:19.031Z,55.00
2023-02-16T12:26:53.289Z,54.33
2023-02-16T12:29:39.115Z,53.05
2023-02-16T12:32:31.644Z,51.88
2023-02-16T12:35:13.904Z,49.83
2023-02-16T12:37:50.459Z,50.15
2023-02-16T12:40:31.635Z,48.30
2023-02-16T12:43:09.979Z,48.60
2023-02-16T12:45:44.256Z,50.42
2023-02-16T12:48:27.419Z,47.75
2023-02-16T12:50:56.937Z,48.83
2023-02-16T12:53:30.748Z,49.03
2023-02-16T12:56:03.410Z,47.53
2023-02-16T12:58:34.978Z,48.75
2023-02-16T13:01:12.193Z,49.30
2023-02-16T13:03:46.509Z,47.78
2023-02-16T13:06:24.280Z,49.13
2023-02-16T13:08:59.754Z,50.00
2023-02-16T13:11:33.888Z,48.22
2023-02-16T13:14:07.280Z,49.22
2023-02-16T13:16:43.484Z,49.78
2023-02-16T13:19:13.625Z,49.78
2023-02-16T13:22:24.393Z,49.80
2023-02-16T13:25:07.143Z,49.80
2023-02-16T13:27:44.417Z,51.53
2023-02-16T13:30:49.201Z,50.33
2023-02-16T13:33:38.643Z,50.05
2023-02-16T13:36:26.464Z,52.33
2023-02-16T13:39:14.312Z,51.72
2023-02-16T13:42:18.734Z,51.90
2023-02-16T13:44:50.673Z,50.67
2023-02-16T13:47:22.941Z,50.45
2023-02-16T13:50:01.460Z,49.10
2023-02-16T13:52:35.906Z,50.65
2023-02-16T13:55:08.418Z,49.83
2023-02-16T13:58:08.847Z,50.00
2023-02-16T14:00:39.090Z,50.80
2023-02-16T14:03:15.536Z,50.03
2023-02-16T14:05:49.605Z,51.22
2023-02-16T14:08:24.263Z,51.97
2023-02-16T14:11:10.009Z,49.58
2023-02-16T14:13:49.661Z,50.00
2023-02-16T14:16:35.361Z,48.75
2023-02-16T14:19:06.745Z,48.88
2023-02-16T14:21:41.269Z,48.30
2023-02-16T14:24:14.476Z,46.47
2023-02-16T14:26:59.442Z,47.53
2023-02-16T14:29:34.156Z,47.22
2023-02-16T14:32:07.693Z,46.25
2023-02-16T14:34:41.488Z,46.90
2023-02-16T14:37:38.251Z,45.20
2023-02-16T14:40:46.118Z,46.53
2023-02-16T14:43:28.568Z,43.72
2023-02-16T14:46:26.716Z,46.95
2023-02-16T14:49:39.852Z,46.10
2023-02-16T14:52:45.902Z,45.83
2023-02-16T14:55:43.926Z,43.13
2023-02-16T14:58:27.904Z,44.55
2023-02-16T15:01:04.657Z,44.42
2023-02-16T15:03:46.819Z,43.75
2023-02-16T15:06:24.101Z,44.83
2023-02-16T15:08:58.311Z,44.00
2023-02-16T15:11:33.229Z,44.17
2023-02-16T15:14:11.264Z,45.15
2023-02-16T15:16:42.204Z,44.42
2023-02-16T15:19:18.140Z,44.80
2023-02-16T15:21:46.758Z,44.78
2023-02-16T15:24:25.912Z,43.45
2023-02-16T15:27:01.706Z,42.88
2023-02-16T15:29:31.670Z,45.22
2023-02-16T15:32:03.928Z,44.72
2023-02-16T15:34:34.946Z,45.65
2023-02-16T15:37:20.633Z,47.22
2023-02-16T15:40:08.619Z,43.70
2023-02-16T15:42:42.247Z,44.83
2023-02-16T15:45:28.652Z,43.50
2023-02-16T15:48:16.100Z,44.33
2023-02-16T15:50:44.916Z,44.42
2023-02-16T15:53:15.204Z,43.85
2023-02-16T15:55:47.926Z,43.78
2023-02-16T15:58:18.219Z,44.40
2023-02-16T16:00:48.012Z,43.92
2023-02-16T16:03:18.745Z,43.83
2023-02-16T16:06:01.679Z,43.55
2023-02-16T16:08:31.196Z,43.65
2023-02-16T16:10:59.823Z,45.20
2023-02-16T16:13:38.725Z,44.55
2023-02-16T16:16:10.136Z,47.78
2023-02-16T16:18:44.567Z,58.83
2023-02-16T16:21:18.481Z,56.30
2023-02-16T16:24:02.634Z,56.88
2023-02-16T16:26:38.533Z,58.53
2023-02-16T16:29:37.239Z,56.55
2023-02-16T16:38:53.543Z,51.13
2023-02-16T17:43:02.485Z,52.03
2023-02-16T17:45:31.990Z,53.15
2023-02-16T17:47:59.933Z,55.92
2023-02-16T17:50:30.616Z,56.20
2023-02-16T17:52:58.807Z,53.33
2023-02-16T17:55:27.012Z,50.03
2023-02-16T17:57:55.907Z,48.95
2023-02-16T18:00:24.317Z,46.65
2023-02-16T18:02:53.871Z,43.47
2023-02-16T18:05:21.889Z,45.25
2023-02-16T18:07:49.946Z,39.17
2023-02-16T18:10:30.912Z,38.75
2023-02-16T18:12:58.937Z,37.95
2023-02-16T18:15:26.989Z,36.63
2023-02-16T18:17:56.603Z,38.30
2023-02-16T18:20:28.978Z,40.22
2023-02-16T18:22:57.010Z,33.20
2023-02-16T18:25:25.340Z,32.58
2023-02-16T18:27:53.895Z,31.75
2023-02-16T18:30:21.936Z,32.03
2023-02-16T18:32:50.614Z,30.00
2023-02-16T18:35:21.041Z,31.27
2023-02-16T18:37:49.630Z,29.90
2023-02-16T18:40:20.686Z,31.58
2023-02-16T18:42:49.328Z,31.80
2023-02-16T18:45:20.194Z,30.83
2023-02-16T18:47:48.632Z,30.60
2023-02-16T18:50:16.691Z,29.90
2023-02-16T18:52:46.232Z,30.40
2023-02-16T18:55:15.265Z,28.88
2023-02-16T18:57:43.730Z,27.38
2023-02-16T19:00:15.338Z,25.98
2023-02-16T19:02:43.406Z,25.13
2023-02-16T19:05:12.424Z,23.83
2023-02-16T19:07:40.541Z,23.80
2023-02-16T19:10:12.080Z,23.83
2023-02-16T19:12:42.483Z,23.48
2023-02-16T19:15:11.307Z,22.02
2023-02-16T19:17:39.710Z,22.77
2023-02-16T19:20:09.902Z,23.45
2023-02-16T19:22:38.168Z,23.30
2023-02-16T19:25:06.878Z,23.20
2023-02-16T19:27:36.718Z,24.00
2023-02-16T19:30:05.199Z,24.15
2023-02-16T19:32:36.638Z,24.20
2023-02-16T19:35:04.776Z,23.80
2023-02-16T19:37:34.997Z,23.75
2023-02-16T19:40:03.073Z,22.73
2023-02-16T19:42:32.237Z,22.15
2023-02-16T19:45:01.781Z,22.67
2023-02-16T19:47:29.940Z,22.85
2023-02-16T19:49:58.408Z,22.70
2023-02-16T19:52:26.513Z,23.50
2023-02-16T19:54:54.728Z,22.17
2023-02-16T19:57:22.994Z,22.85
2023-02-16T20:00:11.687Z,23.50
2023-02-16T20:02:39.880Z,23.65
2023-02-16T20:05:09.789Z,22.88
2023-02-16T20:07:42.708Z,25.35
2023-02-16T20:10:11.057Z,23.13
2023-02-16T20:12:44.734Z,22.42
2023-02-16T20:15:15.492Z,23.63
2023-02-16T20:17:43.592Z,22.88
2023-02-16T20:20:12.308Z,23.88
2023-02-16T20:22:40.260Z,23.30
2023-02-16T20:25:08.502Z,23.80
2023-02-16T20:27:37.042Z,23.33
2023-02-16T20:30:08.298Z,25.08
2023-02-16T20:32:38.011Z,24.20
2023-02-16T20:35:10.366Z,25.33
2023-02-16T20:37:38.304Z,25.85
2023-02-16T20:40:10.399Z,25.60
2023-02-16T20:42:38.484Z,25.80
2023-02-16T20:45:07.360Z,26.02
2023-02-16T20:47:35.303Z,25.98
2023-02-16T20:50:05.488Z,26.45
2023-02-16T20:52:34.504Z,27.27
2023-02-16T20:55:05.242Z,26.55
2023-02-16T20:57:35.050Z,27.75
2023-02-16T21:00:05.049Z,26.38
2023-02-16T21:02:35.045Z,27.30
2023-02-16T21:05:06.495Z,26.65
2023-02-16T21:07:36.678Z,26.67
2023-02-16T21:10:04.967Z,26.48
2023-02-16T21:12:39.485Z,27.35
2023-02-16T21:15:09.712Z,26.95
2023-02-16T21:17:40.012Z,27.60
2023-02-16T21:20:14.774Z,26.00
2023-02-16T21:22:45.699Z,28.13
2023-02-16T21:25:14.033Z,26.67
2023-02-16T21:27:42.312Z,30.00
2023-02-16T21:30:11.439Z,26.88
2023-02-16T21:32:39.846Z,25.35
2023-02-16T21:35:10.919Z,25.52
2023-02-16T21:37:39.425Z,25.15
2023-02-16T21:40:35.273Z,25.15
2023-02-16T21:43:07.969Z,25.17
2023-02-16T21:45:36.235Z,25.25
2023-02-16T21:48:22.008Z,24.23
2023-02-16T21:50:51.574Z,24.95
2023-02-16T21:53:19.684Z,25.00
2023-02-16T21:56:08.695Z,24.27
2023-02-16T21:58:36.782Z,24.92
2023-02-16T22:01:05.103Z,25.40
2023-02-16T22:03:36.179Z,24.92
2023-02-16T22:06:09.436Z,24.42
2023-02-16T22:08:38.732Z,24.48
2023-02-16T22:11:08.788Z,24.98
2023-02-16T22:13:40.019Z,24.67
2023-02-16T22:16:12.834Z,25.23
2023-02-16T22:18:43.586Z,26.35
2023-02-16T22:21:13.571Z,26.42
2023-02-16T22:23:42.064Z,26.77
2023-02-16T22:26:10.201Z,27.35
2023-02-16T22:28:38.490Z,25.83
2023-02-16T22:31:10.204Z,26.25
2023-02-16T22:33:38.355Z,28.05
2023-02-16T22:36:13.953Z,29.30
2023-02-16T22:38:44.120Z,29.20
2023-02-16T22:41:13.329Z,27.25
2023-02-16T22:43:41.853Z,33.08
2023-02-16T22:46:15.957Z,29.92
2023-02-16T22:48:45.000Z,27.40
2023-02-16T22:51:14.409Z,33.78
2023-02-16T22:53:44.414Z,30.67
2023-02-16T22:56:15.438Z,32.65
2023-02-16T22:58:43.644Z,30.33
2023-02-16T23:01:13.396Z,35.63
2023-02-16T23:03:46.013Z,33.15
2023-02-16T23:06:15.009Z,29.58
2023-02-16T23:08:45.274Z,30.05
2023-02-16T23:11:14.450Z,33.78
2023-02-16T23:13:42.543Z,33.33
2023-02-16T23:16:13.403Z,31.88
2023-02-16T23:18:42.571Z,31.38
2023-02-16T23:21:23.552Z,32.83
2023-02-16T23:23:53.734Z,33.40
2023-02-16T23:26:24.122Z,34.72
2023-02-16T23:28:57.002Z,32.53
2023-02-16T23:31:25.210Z,28.80
2023-02-16T23:33:57.724Z,31.73
2023-02-16T23:36:26.150Z,32.17
2023-02-16T23:38:55.690Z,30.63
2023-02-16T23:41:23.685Z,33.97
2023-02-16T23:43:51.668Z,38.17
2023-02-16T23:46:19.718Z,34.85
2023-02-16T23:48:50.321Z,37.40
2023-02-16T23:51:18.745Z,33.53
2023-02-16T23:53:46.642Z,31.35
2023-02-16T23:56:17.673Z,37.25
2023-02-16T23:58:46.803Z,35.30
